sensor_id;sensor_type;location;lat;lon;timestamp;temperature;humidity
70807;DHT22;58882;52.170;5.386;2023-08-17T00:01:35;23.90;50.50
70807;DHT22;58882;52.170;5.386;2023-08-17T00:04:03;23.90;50.60
70807;DHT22;58882;52.170;5.386;2023-08-17T00:06:29;23.80;50.70
70807;DHT22;58882;52.170;5.386;2023-08-17T00:08:56;23.80;50.70
70807;DHT22;58882;52.170;5.386;2023-08-17T00:11:23;23.80;50.70
70807;DHT22;58882;52.170;5.386;2023-08-17T00:13:50;23.80;50.80
70807;DHT22;58882;52.170;5.386;2023-08-17T00:16:17;23.80;50.90
70807;DHT22;58882;52.170;5.386;2023-08-17T00:18:44;23.80;50.90
70807;DHT22;58882;52.170;5.386;2023-08-17T00:21:11;23.80;50.90
70807;DHT22;58882;52.170;5.386;2023-08-17T00:23:38;23.70;50.80
70807;DHT22;58882;52.170;5.386;2023-08-17T00:26:05;23.70;50.90
70807;DHT22;58882;52.170;5.386;2023-08-17T00:28:32;23.70;50.90
70807;DHT22;58882;52.170;5.386;2023-08-17T00:31:00;23.70;51.00
70807;DHT22;58882;52.170;5.386;2023-08-17T00:33:27;23.70;51.10
70807;DHT22;58882;52.170;5.386;2023-08-17T00:35:54;23.70;51.00
70807;DHT22;58882;52.170;5.386;2023-08-17T00:38:21;23.60;51.10
70807;DHT22;58882;52.170;5.386;2023-08-17T00:40:48;23.60;51.10
70807;DHT22;58882;52.170;5.386;2023-08-17T00:43:15;23.60;51.10
70807;DHT22;58882;52.170;5.386;2023-08-17T00:45:44;23.60;51.20
70807;DHT22;58882;52.170;5.386;2023-08-17T00:48:12;23.60;51.20
70807;DHT22;58882;52.170;5.386;2023-08-17T00:50:40;23.60;51.20
70807;DHT22;58882;52.170;5.386;2023-08-17T00:53:07;23.60;51.20
70807;DHT22;58882;52.170;5.386;2023-08-17T00:55:40;23.60;51.30
70807;DHT22;58882;52.170;5.386;2023-08-17T00:58:07;23.50;51.30
70807;DHT22;58882;52.170;5.386;2023-08-17T01:00:34;23.50;51.30
70807;DHT22;58882;52.170;5.386;2023-08-17T01:03:03;23.50;51.40
70807;DHT22;58882;52.170;5.386;2023-08-17T01:05:30;23.50;51.40
70807;DHT22;58882;52.170;5.386;2023-08-17T01:07:59;23.50;51.50
70807;DHT22;58882;52.170;5.386;2023-08-17T01:10:34;23.50;51.60
70807;DHT22;58882;52.170;5.386;2023-08-17T01:13:11;23.40;51.50
70807;DHT22;58882;52.170;5.386;2023-08-17T01:15:45;23.40;51.50
70807;DHT22;58882;52.170;5.386;2023-08-17T01:18:29;23.40;51.50
70807;DHT22;58882;52.170;5.386;2023-08-17T01:21:00;23.40;51.60
70807;DHT22;58882;52.170;5.386;2023-08-17T01:23:28;23.40;51.60
70807;DHT22;58882;52.170;5.386;2023-08-17T01:25:55;23.40;51.70
70807;DHT22;58882;52.170;5.386;2023-08-17T01:28:24;23.40;51.70
70807;DHT22;58882;52.170;5.386;2023-08-17T01:33:42;23.30;51.70
70807;DHT22;58882;52.170;5.386;2023-08-17T01:36:25;23.30;51.80
70807;DHT22;58882;52.170;5.386;2023-08-17T01:38:53;23.40;51.80
70807;DHT22;58882;52.170;5.386;2023-08-17T01:41:23;23.30;51.70
70807;DHT22;58882;52.170;5.386;2023-08-17T01:43:51;23.30;51.80
70807;DHT22;58882;52.170;5.386;2023-08-17T01:46:18;23.30;51.80
70807;DHT22;58882;52.170;5.386;2023-08-17T01:48:45;23.30;51.80
70807;DHT22;58882;52.170;5.386;2023-08-17T01:51:17;23.20;51.90
70807;DHT22;58882;52.170;5.386;2023-08-17T01:53:48;23.20;51.90
70807;DHT22;58882;52.170;5.386;2023-08-17T01:56:15;23.20;51.90
70807;DHT22;58882;52.170;5.386;2023-08-17T01:58:42;23.20;51.90
70807;DHT22;58882;52.170;5.386;2023-08-17T02:01:09;23.20;52.00
70807;DHT22;58882;52.170;5.386;2023-08-17T02:03:36;23.20;52.00
70807;DHT22;58882;52.170;5.386;2023-08-17T02:06:03;23.20;52.10
70807;DHT22;58882;52.170;5.386;2023-08-17T02:08:30;23.20;52.10
70807;DHT22;58882;52.170;5.386;2023-08-17T02:10:57;23.20;52.20
70807;DHT22;58882;52.170;5.386;2023-08-17T02:13:24;23.10;52.10
70807;DHT22;58882;52.170;5.386;2023-08-17T02:15:51;23.20;52.10
70807;DHT22;58882;52.170;5.386;2023-08-17T02:18:18;23.20;52.10
70807;DHT22;58882;52.170;5.386;2023-08-17T02:20:45;23.10;52.10
70807;DHT22;58882;52.170;5.386;2023-08-17T02:23:12;23.10;52.10
70807;DHT22;58882;52.170;5.386;2023-08-17T02:25:39;23.10;52.20
70807;DHT22;58882;52.170;5.386;2023-08-17T02:28:06;23.10;52.30
70807;DHT22;58882;52.170;5.386;2023-08-17T02:30:33;23.10;52.20
70807;DHT22;58882;52.170;5.386;2023-08-17T02:33:00;23.10;52.20
70807;DHT22;58882;52.170;5.386;2023-08-17T02:35:27;23.10;52.70
70807;DHT22;58882;52.170;5.386;2023-08-17T02:37:54;23.10;52.30
70807;DHT22;58882;52.170;5.386;2023-08-17T02:40:21;23.00;52.30
70807;DHT22;58882;52.170;5.386;2023-08-17T02:42:48;23.10;52.40
70807;DHT22;58882;52.170;5.386;2023-08-17T02:45:15;23.00;52.40
70807;DHT22;58882;52.170;5.386;2023-08-17T02:47:42;23.00;52.40
70807;DHT22;58882;52.170;5.386;2023-08-17T02:50:09;23.00;52.60
70807;DHT22;58882;52.170;5.386;2023-08-17T02:52:36;23.00;52.70
70807;DHT22;58882;52.170;5.386;2023-08-17T02:55:03;23.00;52.60
70807;DHT22;58882;52.170;5.386;2023-08-17T02:57:31;23.00;52.60
70807;DHT22;58882;52.170;5.386;2023-08-17T02:59:58;23.00;52.70
70807;DHT22;58882;52.170;5.386;2023-08-17T03:02:24;23.00;52.70
70807;DHT22;58882;52.170;5.386;2023-08-17T03:04:52;23.00;52.80
70807;DHT22;58882;52.170;5.386;2023-08-17T03:07:18;22.90;52.70
70807;DHT22;58882;52.170;5.386;2023-08-17T03:09:45;22.90;52.70
70807;DHT22;58882;52.170;5.386;2023-08-17T03:12:12;22.90;52.70
70807;DHT22;58882;52.170;5.386;2023-08-17T03:14:39;22.90;52.80
70807;DHT22;58882;52.170;5.386;2023-08-17T03:17:06;22.90;52.90
70807;DHT22;58882;52.170;5.386;2023-08-17T03:19:33;22.90;53.00
70807;DHT22;58882;52.170;5.386;2023-08-17T03:22:00;22.90;52.80
70807;DHT22;58882;52.170;5.386;2023-08-17T03:24:27;22.90;52.90
70807;DHT22;58882;52.170;5.386;2023-08-17T03:26:55;22.90;52.90
70807;DHT22;58882;52.170;5.386;2023-08-17T03:29:25;22.90;53.00
70807;DHT22;58882;52.170;5.386;2023-08-17T03:31:53;22.90;53.10
70807;DHT22;58882;52.170;5.386;2023-08-17T03:34:22;22.90;53.10
70807;DHT22;58882;52.170;5.386;2023-08-17T03:36:50;22.90;53.10
70807;DHT22;58882;52.170;5.386;2023-08-17T03:39:17;22.90;53.00
70807;DHT22;58882;52.170;5.386;2023-08-17T03:41:43;22.80;53.00
70807;DHT22;58882;52.170;5.386;2023-08-17T03:44:10;22.90;53.00
70807;DHT22;58882;52.170;5.386;2023-08-17T03:46:37;22.80;53.00
70807;DHT22;58882;52.170;5.386;2023-08-17T03:49:04;22.80;53.00
70807;DHT22;58882;52.170;5.386;2023-08-17T03:51:31;22.80;52.90
70807;DHT22;58882;52.170;5.386;2023-08-17T03:53:58;22.80;53.90
70807;DHT22;58882;52.170;5.386;2023-08-17T03:56:25;22.80;52.90
70807;DHT22;58882;52.170;5.386;2023-08-17T03:58:53;22.80;53.00
70807;DHT22;58882;52.170;5.386;2023-08-17T04:01:20;22.80;53.00
70807;DHT22;58882;52.170;5.386;2023-08-17T04:03:47;22.80;53.00
70807;DHT22;58882;52.170;5.386;2023-08-17T04:06:14;22.80;52.90
70807;DHT22;58882;52.170;5.386;2023-08-17T04:08:42;22.80;52.80
70807;DHT22;58882;52.170;5.386;2023-08-17T04:11:08;22.80;52.80
70807;DHT22;58882;52.170;5.386;2023-08-17T04:13:35;22.80;52.80
70807;DHT22;58882;52.170;5.386;2023-08-17T04:16:02;22.80;52.90
70807;DHT22;58882;52.170;5.386;2023-08-17T04:18:29;22.80;52.80
70807;DHT22;58882;52.170;5.386;2023-08-17T04:20:56;22.80;53.00
70807;DHT22;58882;52.170;5.386;2023-08-17T04:23:24;22.80;53.10
70807;DHT22;58882;52.170;5.386;2023-08-17T04:25:51;22.80;53.00
70807;DHT22;58882;52.170;5.386;2023-08-17T04:28:18;22.80;53.00
70807;DHT22;58882;52.170;5.386;2023-08-17T04:30:45;22.80;52.90
70807;DHT22;58882;52.170;5.386;2023-08-17T04:33:13;22.80;52.90
70807;DHT22;58882;52.170;5.386;2023-08-17T04:35:39;22.80;52.80
70807;DHT22;58882;52.170;5.386;2023-08-17T04:38:06;22.80;52.70
70807;DHT22;58882;52.170;5.386;2023-08-17T04:40:33;22.80;52.70
70807;DHT22;58882;52.170;5.386;2023-08-17T04:43:01;22.80;52.80
70807;DHT22;58882;52.170;5.386;2023-08-17T04:45:28;22.70;53.50
70807;DHT22;58882;52.170;5.386;2023-08-17T04:47:55;22.80;52.80
70807;DHT22;58882;52.170;5.386;2023-08-17T04:50:23;22.80;52.90
70807;DHT22;58882;52.170;5.386;2023-08-17T04:52:50;22.70;52.90
70807;DHT22;58882;52.170;5.386;2023-08-17T04:55:17;22.70;53.00
70807;DHT22;58882;52.170;5.386;2023-08-17T04:57:43;22.70;53.00
70807;DHT22;58882;52.170;5.386;2023-08-17T05:00:12;22.70;53.00
70807;DHT22;58882;52.170;5.386;2023-08-17T05:02:41;22.70;53.00
70807;DHT22;58882;52.170;5.386;2023-08-17T05:05:09;22.70;52.90
70807;DHT22;58882;52.170;5.386;2023-08-17T05:07:36;22.70;53.00
70807;DHT22;58882;52.170;5.386;2023-08-17T05:10:04;22.70;53.00
70807;DHT22;58882;52.170;5.386;2023-08-17T05:12:34;22.70;53.00
70807;DHT22;58882;52.170;5.386;2023-08-17T05:15:01;22.80;53.00
70807;DHT22;58882;52.170;5.386;2023-08-17T05:17:27;22.70;53.00
70807;DHT22;58882;52.170;5.386;2023-08-17T05:19:55;22.80;53.10
70807;DHT22;58882;52.170;5.386;2023-08-17T05:22:22;22.80;53.10
70807;DHT22;58882;52.170;5.386;2023-08-17T05:24:49;22.70;53.10
70807;DHT22;58882;52.170;5.386;2023-08-17T05:27:18;22.80;53.10
70807;DHT22;58882;52.170;5.386;2023-08-17T05:29:45;22.80;53.10
70807;DHT22;58882;52.170;5.386;2023-08-17T05:32:12;22.80;53.00
70807;DHT22;58882;52.170;5.386;2023-08-17T05:34:40;22.80;53.10
70807;DHT22;58882;52.170;5.386;2023-08-17T05:37:07;22.80;53.10
70807;DHT22;58882;52.170;5.386;2023-08-17T05:39:34;22.80;53.00
70807;DHT22;58882;52.170;5.386;2023-08-17T05:42:02;22.90;52.90
70807;DHT22;58882;52.170;5.386;2023-08-17T05:44:29;22.90;52.80
70807;DHT22;58882;52.170;5.386;2023-08-17T05:46:56;22.90;52.70
70807;DHT22;58882;52.170;5.386;2023-08-17T05:49:23;22.90;52.70
70807;DHT22;58882;52.170;5.386;2023-08-17T05:51:49;22.90;52.60
70807;DHT22;58882;52.170;5.386;2023-08-17T05:54:16;23.00;53.60
70807;DHT22;58882;52.170;5.386;2023-08-17T05:56:43;23.00;52.60
70807;DHT22;58882;52.170;5.386;2023-08-17T05:59:13;23.00;52.40
70807;DHT22;58882;52.170;5.386;2023-08-17T06:01:40;23.10;52.40
70807;DHT22;58882;52.170;5.386;2023-08-17T06:04:07;23.10;52.30
70807;DHT22;58882;52.170;5.386;2023-08-17T06:06:34;23.10;52.20
70807;DHT22;58882;52.170;5.386;2023-08-17T06:09:01;23.10;52.10
70807;DHT22;58882;52.170;5.386;2023-08-17T06:11:28;23.20;52.00
70807;DHT22;58882;52.170;5.386;2023-08-17T06:13:55;23.20;51.90
70807;DHT22;58882;52.170;5.386;2023-08-17T06:16:22;23.20;51.90
70807;DHT22;58882;52.170;5.386;2023-08-17T06:18:50;23.20;51.80
70807;DHT22;58882;52.170;5.386;2023-08-17T06:21:17;23.20;51.80
70807;DHT22;58882;52.170;5.386;2023-08-17T06:23:44;23.30;51.80
70807;DHT22;58882;52.170;5.386;2023-08-17T06:26:11;23.30;51.70
70807;DHT22;58882;52.170;5.386;2023-08-17T06:28:37;23.30;51.70
70807;DHT22;58882;52.170;5.386;2023-08-17T06:31:05;23.40;51.70
70807;DHT22;58882;52.170;5.386;2023-08-17T06:33:32;23.40;51.70
70807;DHT22;58882;52.170;5.386;2023-08-17T06:35:58;23.40;51.60
70807;DHT22;58882;52.170;5.386;2023-08-17T06:38:25;23.40;51.60
70807;DHT22;58882;52.170;5.386;2023-08-17T06:40:52;23.40;51.50
70807;DHT22;58882;52.170;5.386;2023-08-17T06:43:19;23.50;51.50
70807;DHT22;58882;52.170;5.386;2023-08-17T06:45:46;23.50;51.40
70807;DHT22;58882;52.170;5.386;2023-08-17T06:48:13;23.50;51.40
70807;DHT22;58882;52.170;5.386;2023-08-17T06:50:39;23.50;51.30
70807;DHT22;58882;52.170;5.386;2023-08-17T06:53:07;23.50;51.30
70807;DHT22;58882;52.170;5.386;2023-08-17T06:55:34;23.50;51.20
70807;DHT22;58882;52.170;5.386;2023-08-17T06:58:01;23.50;51.20
70807;DHT22;58882;52.170;5.386;2023-08-17T07:00:28;23.50;51.20
70807;DHT22;58882;52.170;5.386;2023-08-17T07:02:54;23.50;51.20
70807;DHT22;58882;52.170;5.386;2023-08-17T07:05:26;23.60;51.10
70807;DHT22;58882;52.170;5.386;2023-08-17T07:07:53;23.60;51.20
70807;DHT22;58882;52.170;5.386;2023-08-17T07:10:20;23.60;51.00
70807;DHT22;58882;52.170;5.386;2023-08-17T07:12:46;23.60;50.90
70807;DHT22;58882;52.170;5.386;2023-08-17T07:15:13;23.60;50.90
70807;DHT22;58882;52.170;5.386;2023-08-17T07:17:42;23.60;50.90
70807;DHT22;58882;52.170;5.386;2023-08-17T07:20:09;23.60;50.80
70807;DHT22;58882;52.170;5.386;2023-08-17T07:22:47;23.60;50.80
70807;DHT22;58882;52.170;5.386;2023-08-17T07:25:14;23.70;50.90
70807;DHT22;58882;52.170;5.386;2023-08-17T07:27:41;23.70;50.90
70807;DHT22;58882;52.170;5.386;2023-08-17T07:30:09;23.70;50.80
70807;DHT22;58882;52.170;5.386;2023-08-17T07:32:36;23.70;50.80
70807;DHT22;58882;52.170;5.386;2023-08-17T07:35:03;23.80;50.80
70807;DHT22;58882;52.170;5.386;2023-08-17T07:37:30;23.80;50.70
70807;DHT22;58882;52.170;5.386;2023-08-17T07:40:01;23.90;50.60
70807;DHT22;58882;52.170;5.386;2023-08-17T07:42:30;24.00;50.50
70807;DHT22;58882;52.170;5.386;2023-08-17T07:44:57;24.30;50.30
70807;DHT22;58882;52.170;5.386;2023-08-17T07:47:24;24.50;49.80
70807;DHT22;58882;52.170;5.386;2023-08-17T07:49:52;24.70;49.30
70807;DHT22;58882;52.170;5.386;2023-08-17T07:52:19;24.80;48.90
70807;DHT22;58882;52.170;5.386;2023-08-17T07:54:46;25.10;48.70
70807;DHT22;58882;52.170;5.386;2023-08-17T07:57:12;25.40;48.10
70807;DHT22;58882;52.170;5.386;2023-08-17T07:59:39;25.70;47.50
70807;DHT22;58882;52.170;5.386;2023-08-17T08:02:06;26.00;46.90
70807;DHT22;58882;52.170;5.386;2023-08-17T08:04:33;26.40;47.40
70807;DHT22;58882;52.170;5.386;2023-08-17T08:07:00;26.70;45.70
70807;DHT22;58882;52.170;5.386;2023-08-17T08:09:26;26.90;45.10
70807;DHT22;58882;52.170;5.386;2023-08-17T08:11:53;27.20;44.50
70807;DHT22;58882;52.170;5.386;2023-08-17T08:14:20;27.50;44.00
70807;DHT22;58882;52.170;5.386;2023-08-17T08:16:47;27.70;43.40
70807;DHT22;58882;52.170;5.386;2023-08-17T08:19:14;27.90;43.10
70807;DHT22;58882;52.170;5.386;2023-08-17T08:21:40;28.00;43.00
70807;DHT22;58882;52.170;5.386;2023-08-17T08:24:07;28.20;42.70
70807;DHT22;58882;52.170;5.386;2023-08-17T08:26:47;28.30;42.30
70807;DHT22;58882;52.170;5.386;2023-08-17T08:29:14;28.50;42.60
70807;DHT22;58882;52.170;5.386;2023-08-17T08:31:41;28.60;42.00
70807;DHT22;58882;52.170;5.386;2023-08-17T08:34:08;28.70;41.60
70807;DHT22;58882;52.170;5.386;2023-08-17T08:36:35;28.80;42.30
70807;DHT22;58882;52.170;5.386;2023-08-17T08:39:01;28.90;41.00
70807;DHT22;58882;52.170;5.386;2023-08-17T08:41:29;29.00;41.90
70807;DHT22;58882;52.170;5.386;2023-08-17T08:43:57;29.10;40.60
70807;DHT22;58882;52.170;5.386;2023-08-17T08:46:26;29.20;40.30
70807;DHT22;58882;52.170;5.386;2023-08-17T08:48:56;29.30;40.10
70807;DHT22;58882;52.170;5.386;2023-08-17T08:51:27;29.20;40.00
70807;DHT22;58882;52.170;5.386;2023-08-17T08:54:01;29.10;40.10
70807;DHT22;58882;52.170;5.386;2023-08-17T08:56:32;28.90;40.20
70807;DHT22;58882;52.170;5.386;2023-08-17T08:59:02;28.70;40.60
70807;DHT22;58882;52.170;5.386;2023-08-17T09:01:32;28.50;40.90
70807;DHT22;58882;52.170;5.386;2023-08-17T09:04:00;28.30;41.10
70807;DHT22;58882;52.170;5.386;2023-08-17T09:06:29;28.20;41.60
70807;DHT22;58882;52.170;5.386;2023-08-17T09:08:57;27.90;41.80
70807;DHT22;58882;52.170;5.386;2023-08-17T09:11:25;27.80;42.20
70807;DHT22;58882;52.170;5.386;2023-08-17T09:13:53;27.60;42.40
70807;DHT22;58882;52.170;5.386;2023-08-17T09:16:20;27.40;42.70
70807;DHT22;58882;52.170;5.386;2023-08-17T09:18:52;27.30;42.60
70807;DHT22;58882;52.170;5.386;2023-08-17T09:21:21;27.20;43.00
70807;DHT22;58882;52.170;5.386;2023-08-17T09:23:56;27.10;44.20
70807;DHT22;58882;52.170;5.386;2023-08-17T09:26:30;27.00;43.30
70807;DHT22;58882;52.170;5.386;2023-08-17T09:28:57;27.00;43.50
70807;DHT22;58882;52.170;5.386;2023-08-17T09:31:25;27.00;43.50
70807;DHT22;58882;52.170;5.386;2023-08-17T09:33:52;27.00;43.50
70807;DHT22;58882;52.170;5.386;2023-08-17T09:36:24;27.00;43.50
70807;DHT22;58882;52.170;5.386;2023-08-17T09:38:51;26.90;43.50
70807;DHT22;58882;52.170;5.386;2023-08-17T09:41:19;26.90;43.70
70807;DHT22;58882;52.170;5.386;2023-08-17T09:43:46;26.90;43.90
70807;DHT22;58882;52.170;5.386;2023-08-17T09:46:14;26.80;44.00
70807;DHT22;58882;52.170;5.386;2023-08-17T09:48:43;26.80;44.10
70807;DHT22;58882;52.170;5.386;2023-08-17T09:51:15;26.70;44.10
70807;DHT22;58882;52.170;5.386;2023-08-17T09:53:42;26.70;44.10
70807;DHT22;58882;52.170;5.386;2023-08-17T09:56:09;26.70;44.20
70807;DHT22;58882;52.170;5.386;2023-08-17T09:58:43;26.60;44.30
70807;DHT22;58882;52.170;5.386;2023-08-17T10:01:11;26.60;44.40
70807;DHT22;58882;52.170;5.386;2023-08-17T10:03:43;26.50;44.40
70807;DHT22;58882;52.170;5.386;2023-08-17T10:06:13;26.50;44.60
70807;DHT22;58882;52.170;5.386;2023-08-17T10:08:46;26.50;44.80
70807;DHT22;58882;52.170;5.386;2023-08-17T10:11:18;26.40;44.90
70807;DHT22;58882;52.170;5.386;2023-08-17T10:13:51;26.40;44.90
70807;DHT22;58882;52.170;5.386;2023-08-17T10:16:40;26.40;45.10
70807;DHT22;58882;52.170;5.386;2023-08-17T10:19:19;26.30;45.20
70807;DHT22;58882;52.170;5.386;2023-08-17T10:21:54;26.20;45.30
70807;DHT22;58882;52.170;5.386;2023-08-17T10:24:23;26.20;45.30
70807;DHT22;58882;52.170;5.386;2023-08-17T10:26:50;26.20;45.30
70807;DHT22;58882;52.170;5.386;2023-08-17T10:29:22;26.10;45.40
70807;DHT22;58882;52.170;5.386;2023-08-17T10:31:50;26.10;45.50
70807;DHT22;58882;52.170;5.386;2023-08-17T10:34:17;26.10;45.60
70807;DHT22;58882;52.170;5.386;2023-08-17T10:36:45;26.00;45.70
70807;DHT22;58882;52.170;5.386;2023-08-17T10:39:22;26.00;45.70
70807;DHT22;58882;52.170;5.386;2023-08-17T10:41:54;26.00;45.80
70807;DHT22;58882;52.170;5.386;2023-08-17T10:44:40;26.00;45.80
70807;DHT22;58882;52.170;5.386;2023-08-17T10:47:28;26.00;45.80
70807;DHT22;58882;52.170;5.386;2023-08-17T10:50:21;26.00;45.80
70807;DHT22;58882;52.170;5.386;2023-08-17T10:52:49;26.00;46.00
70807;DHT22;58882;52.170;5.386;2023-08-17T10:55:17;26.00;46.00
70807;DHT22;58882;52.170;5.386;2023-08-17T10:57:45;26.00;46.10
70807;DHT22;58882;52.170;5.386;2023-08-17T11:00:23;26.00;46.20
70807;DHT22;58882;52.170;5.386;2023-08-17T11:02:58;25.90;46.20
70807;DHT22;58882;52.170;5.386;2023-08-17T11:05:40;25.90;46.30
70807;DHT22;58882;52.170;5.386;2023-08-17T11:08:09;25.80;46.30
70807;DHT22;58882;52.170;5.386;2023-08-17T11:10:37;25.90;46.50
70807;DHT22;58882;52.170;5.386;2023-08-17T11:13:05;25.80;46.50
70807;DHT22;58882;52.170;5.386;2023-08-17T11:15:40;25.80;46.60
70807;DHT22;58882;52.170;5.386;2023-08-17T11:18:12;25.80;46.60
70807;DHT22;58882;52.170;5.386;2023-08-17T11:20:40;25.80;46.60
70807;DHT22;58882;52.170;5.386;2023-08-17T11:23:08;25.80;46.60
70807;DHT22;58882;52.170;5.386;2023-08-17T11:25:37;25.90;46.70
70807;DHT22;58882;52.170;5.386;2023-08-17T11:28:07;25.90;46.70
70807;DHT22;58882;52.170;5.386;2023-08-17T11:30:35;25.80;46.60
70807;DHT22;58882;52.170;5.386;2023-08-17T11:33:05;25.80;46.70
70807;DHT22;58882;52.170;5.386;2023-08-17T11:35:33;25.80;46.70
70807;DHT22;58882;52.170;5.386;2023-08-17T11:38:00;25.80;46.70
70807;DHT22;58882;52.170;5.386;2023-08-17T11:40:27;25.80;46.90
70807;DHT22;58882;52.170;5.386;2023-08-17T11:42:54;25.80;46.90
70807;DHT22;58882;52.170;5.386;2023-08-17T11:45:21;25.70;46.90
70807;DHT22;58882;52.170;5.386;2023-08-17T11:47:53;25.70;46.90
70807;DHT22;58882;52.170;5.386;2023-08-17T11:50:20;25.70;47.10
70807;DHT22;58882;52.170;5.386;2023-08-17T11:52:47;25.70;47.10
70807;DHT22;58882;52.170;5.386;2023-08-17T11:55:16;25.70;47.20
70807;DHT22;58882;52.170;5.386;2023-08-17T11:57:47;25.70;47.20
70807;DHT22;58882;52.170;5.386;2023-08-17T12:00:21;25.70;47.30
70807;DHT22;58882;52.170;5.386;2023-08-17T12:02:52;25.70;47.20
70807;DHT22;58882;52.170;5.386;2023-08-17T12:05:22;25.70;47.20
70807;DHT22;58882;52.170;5.386;2023-08-17T12:07:50;25.70;47.20
70807;DHT22;58882;52.170;5.386;2023-08-17T12:10:19;25.70;47.20
70807;DHT22;58882;52.170;5.386;2023-08-17T12:12:47;25.70;47.20
70807;DHT22;58882;52.170;5.386;2023-08-17T12:15:16;25.70;47.30
70807;DHT22;58882;52.170;5.386;2023-08-17T12:17:48;25.70;47.30
70807;DHT22;58882;52.170;5.386;2023-08-17T12:20:18;25.70;47.40
70807;DHT22;58882;52.170;5.386;2023-08-17T12:22:45;25.70;47.50
70807;DHT22;58882;52.170;5.386;2023-08-17T12:25:13;25.70;47.50
70807;DHT22;58882;52.170;5.386;2023-08-17T12:27:40;25.70;47.60
70807;DHT22;58882;52.170;5.386;2023-08-17T12:30:23;25.60;47.60
70807;DHT22;58882;52.170;5.386;2023-08-17T12:32:50;25.60;48.60
70807;DHT22;58882;52.170;5.386;2023-08-17T12:35:19;25.60;47.60
70807;DHT22;58882;52.170;5.386;2023-08-17T12:37:48;25.60;47.60
70807;DHT22;58882;52.170;5.386;2023-08-17T12:40:15;25.60;47.80
70807;DHT22;58882;52.170;5.386;2023-08-17T12:42:41;25.60;47.90
70807;DHT22;58882;52.170;5.386;2023-08-17T12:45:09;25.60;47.90
70807;DHT22;58882;52.170;5.386;2023-08-17T12:47:36;25.60;47.90
70807;DHT22;58882;52.170;5.386;2023-08-17T12:50:03;25.60;48.00
70807;DHT22;58882;52.170;5.386;2023-08-17T12:52:30;25.50;47.90
70807;DHT22;58882;52.170;5.386;2023-08-17T12:54:58;25.50;48.00
70807;DHT22;58882;52.170;5.386;2023-08-17T12:57:25;25.50;48.00
70807;DHT22;58882;52.170;5.386;2023-08-17T12:59:54;25.50;48.00
70807;DHT22;58882;52.170;5.386;2023-08-17T13:02:22;25.50;48.00
70807;DHT22;58882;52.170;5.386;2023-08-17T13:04:50;25.50;48.00
70807;DHT22;58882;52.170;5.386;2023-08-17T13:07:17;25.40;48.00
70807;DHT22;58882;52.170;5.386;2023-08-17T13:09:44;25.50;48.10
70807;DHT22;58882;52.170;5.386;2023-08-17T13:12:13;25.40;48.10
70807;DHT22;58882;52.170;5.386;2023-08-17T13:14:40;25.40;48.10
70807;DHT22;58882;52.170;5.386;2023-08-17T13:17:07;25.50;48.30
70807;DHT22;58882;52.170;5.386;2023-08-17T13:19:34;25.40;48.30
70807;DHT22;58882;52.170;5.386;2023-08-17T13:22:01;25.40;48.40
70807;DHT22;58882;52.170;5.386;2023-08-17T13:24:29;25.40;48.50
70807;DHT22;58882;52.170;5.386;2023-08-17T13:26:56;25.40;48.60
70807;DHT22;58882;52.170;5.386;2023-08-17T13:29:24;25.40;48.70
70807;DHT22;58882;52.170;5.386;2023-08-17T13:31:51;25.40;48.70
70807;DHT22;58882;52.170;5.386;2023-08-17T13:34:17;25.40;48.70
70807;DHT22;58882;52.170;5.386;2023-08-17T13:36:44;25.40;48.70
70807;DHT22;58882;52.170;5.386;2023-08-17T13:39:11;25.40;48.70
70807;DHT22;58882;52.170;5.386;2023-08-17T13:41:38;25.40;48.80
70807;DHT22;58882;52.170;5.386;2023-08-17T13:44:05;25.40;48.80
70807;DHT22;58882;52.170;5.386;2023-08-17T13:46:32;25.40;48.90
70807;DHT22;58882;52.170;5.386;2023-08-17T13:48:59;25.40;48.90
70807;DHT22;58882;52.170;5.386;2023-08-17T13:51:26;25.40;48.90
70807;DHT22;58882;52.170;5.386;2023-08-17T13:53:53;25.40;48.90
70807;DHT22;58882;52.170;5.386;2023-08-17T13:56:20;25.40;49.40
70807;DHT22;58882;52.170;5.386;2023-08-17T13:58:46;25.30;48.80
70807;DHT22;58882;52.170;5.386;2023-08-17T14:01:13;25.40;49.90
70807;DHT22;58882;52.170;5.386;2023-08-17T14:03:41;25.30;48.90
70807;DHT22;58882;52.170;5.386;2023-08-17T14:06:09;25.40;49.00
70807;DHT22;58882;52.170;5.386;2023-08-17T14:08:36;25.30;48.90
70807;DHT22;58882;52.170;5.386;2023-08-17T14:11:03;25.40;49.10
70807;DHT22;58882;52.170;5.386;2023-08-17T14:13:31;25.40;49.00
70807;DHT22;58882;52.170;5.386;2023-08-17T14:15:57;25.40;49.00
70807;DHT22;58882;52.170;5.386;2023-08-17T14:18:26;25.40;49.00
70807;DHT22;58882;52.170;5.386;2023-08-17T14:20:52;25.40;49.00
70807;DHT22;58882;52.170;5.386;2023-08-17T14:23:19;25.40;49.00
70807;DHT22;58882;52.170;5.386;2023-08-17T14:25:46;25.40;49.00
70807;DHT22;58882;52.170;5.386;2023-08-17T14:28:13;25.40;49.10
70807;DHT22;58882;52.170;5.386;2023-08-17T14:30:40;25.40;49.00
70807;DHT22;58882;52.170;5.386;2023-08-17T14:33:07;25.40;49.10
70807;DHT22;58882;52.170;5.386;2023-08-17T14:35:34;25.40;49.10
70807;DHT22;58882;52.170;5.386;2023-08-17T14:38:00;25.40;49.10
70807;DHT22;58882;52.170;5.386;2023-08-17T14:40:28;25.40;49.20
70807;DHT22;58882;52.170;5.386;2023-08-17T14:42:55;25.40;49.20
70807;DHT22;58882;52.170;5.386;2023-08-17T14:45:22;25.40;49.20
70807;DHT22;58882;52.170;5.386;2023-08-17T14:47:49;25.30;49.20
70807;DHT22;58882;52.170;5.386;2023-08-17T14:50:16;25.30;49.20
70807;DHT22;58882;52.170;5.386;2023-08-17T14:52:42;25.40;49.40
70807;DHT22;58882;52.170;5.386;2023-08-17T14:55:09;25.40;49.40
70807;DHT22;58882;52.170;5.386;2023-08-17T14:57:37;25.40;49.40
70807;DHT22;58882;52.170;5.386;2023-08-17T15:00:04;25.30;49.40
70807;DHT22;58882;52.170;5.386;2023-08-17T15:02:31;25.40;49.40
70807;DHT22;58882;52.170;5.386;2023-08-17T15:04:58;25.30;49.40
70807;DHT22;58882;52.170;5.386;2023-08-17T15:07:25;25.30;49.40
70807;DHT22;58882;52.170;5.386;2023-08-17T15:09:52;25.30;49.40
70807;DHT22;58882;52.170;5.386;2023-08-17T15:12:19;25.30;49.60
70807;DHT22;58882;52.170;5.386;2023-08-17T15:14:50;25.30;49.60
70807;DHT22;58882;52.170;5.386;2023-08-17T15:17:16;25.30;49.70
70807;DHT22;58882;52.170;5.386;2023-08-17T15:19:43;25.30;49.70
70807;DHT22;58882;52.170;5.386;2023-08-17T15:22:10;25.30;49.80
70807;DHT22;58882;52.170;5.386;2023-08-17T15:24:40;25.30;49.80
70807;DHT22;58882;52.170;5.386;2023-08-17T15:27:07;25.30;49.80
70807;DHT22;58882;52.170;5.386;2023-08-17T15:29:33;25.30;49.80
70807;DHT22;58882;52.170;5.386;2023-08-17T15:32:00;25.30;49.80
70807;DHT22;58882;52.170;5.386;2023-08-17T15:34:27;25.30;49.90
70807;DHT22;58882;52.170;5.386;2023-08-17T15:36:54;25.30;49.80
70807;DHT22;58882;52.170;5.386;2023-08-17T15:39:22;25.30;49.90